sensor_id;sensor_type;location;lat;lon;timestamp;P1;durP1;ratioP1;P2;durP2;ratioP2
60014;SDS011;45867;52.480;6.056;2023-05-20T00:00:34;15.77;;;5.50;;
60014;SDS011;45867;52.480;6.056;2023-05-20T00:02:59;13.57;;;5.13;;
60014;SDS011;45867;52.480;6.056;2023-05-20T00:05:25;18.67;;;5.75;;
60014;SDS011;45867;52.480;6.056;2023-05-20T00:07:50;16.83;;;5.72;;
60014;SDS011;45867;52.480;6.056;2023-05-20T00:10:16;17.60;;;4.93;;
60014;SDS011;45867;52.480;6.056;2023-05-20T00:12:41;17.45;;;5.47;;
60014;SDS011;45867;52.480;6.056;2023-05-20T00:15:07;13.90;;;5.63;;
60014;SDS011;45867;52.480;6.056;2023-05-20T00:17:32;13.77;;;5.60;;
60014;SDS011;45867;52.480;6.056;2023-05-20T00:19:58;13.45;;;5.28;;
60014;SDS011;45867;52.480;6.056;2023-05-20T00:22:24;13.45;;;5.15;;
60014;SDS011;45867;52.480;6.056;2023-05-20T00:24:49;14.55;;;5.50;;
60014;SDS011;45867;52.480;6.056;2023-05-20T00:27:14;12.63;;;5.22;;
60014;SDS011;45867;52.480;6.056;2023-05-20T00:29:40;12.98;;;5.40;;
60014;SDS011;45867;52.480;6.056;2023-05-20T00:32:05;9.55;;;5.20;;
60014;SDS011;45867;52.480;6.056;2023-05-20T00:34:31;13.82;;;5.53;;
60014;SDS011;45867;52.480;6.056;2023-05-20T00:36:56;14.27;;;5.32;;
60014;SDS011;45867;52.480;6.056;2023-05-20T00:39:21;12.38;;;5.35;;
60014;SDS011;45867;52.480;6.056;2023-05-20T00:41:47;16.17;;;5.55;;
60014;SDS011;45867;52.480;6.056;2023-05-20T00:44:12;15.93;;;4.97;;
60014;SDS011;45867;52.480;6.056;2023-05-20T00:46:37;21.98;;;5.53;;
60014;SDS011;45867;52.480;6.056;2023-05-20T00:49:03;10.95;;;5.50;;
60014;SDS011;45867;52.480;6.056;2023-05-20T00:51:29;15.48;;;5.35;;
60014;SDS011;45867;52.480;6.056;2023-05-20T00:53:55;21.73;;;5.90;;
60014;SDS011;45867;52.480;6.056;2023-05-20T00:56:20;13.13;;;5.38;;
60014;SDS011;45867;52.480;6.056;2023-05-20T00:58:46;16.10;;;5.85;;
60014;SDS011;45867;52.480;6.056;2023-05-20T01:01:12;13.43;;;5.60;;
60014;SDS011;45867;52.480;6.056;2023-05-20T01:03:37;23.88;;;5.50;;
60014;SDS011;45867;52.480;6.056;2023-05-20T01:06:03;14.30;;;5.72;;
60014;SDS011;45867;52.480;6.056;2023-05-20T01:08:29;11.68;;;5.38;;
60014;SDS011;45867;52.480;6.056;2023-05-20T01:11:00;12.90;;;5.50;;
60014;SDS011;45867;52.480;6.056;2023-05-20T01:13:30;17.48;;;5.80;;
60014;SDS011;45867;52.480;6.056;2023-05-20T01:16:00;13.70;;;5.80;;
60014;SDS011;45867;52.480;6.056;2023-05-20T01:18:28;9.02;;;5.65;;
60014;SDS011;45867;52.480;6.056;2023-05-20T01:20:55;16.30;;;6.22;;
60014;SDS011;45867;52.480;6.056;2023-05-20T01:23:32;15.00;;;5.50;;
60014;SDS011;45867;52.480;6.056;2023-05-20T01:26:02;12.27;;;5.05;;
60014;SDS011;45867;52.480;6.056;2023-05-20T01:28:28;10.25;;;5.43;;
60014;SDS011;45867;52.480;6.056;2023-05-20T01:30:55;15.98;;;5.88;;
60014;SDS011;45867;52.480;6.056;2023-05-20T01:33:23;16.27;;;6.13;;
60014;SDS011;45867;52.480;6.056;2023-05-20T01:35:50;19.60;;;5.68;;
60014;SDS011;45867;52.480;6.056;2023-05-20T01:38:16;11.27;;;5.80;;
60014;SDS011;45867;52.480;6.056;2023-05-20T01:40:43;19.33;;;5.70;;
60014;SDS011;45867;52.480;6.056;2023-05-20T01:43:10;18.10;;;5.57;;
60014;SDS011;45867;52.480;6.056;2023-05-20T01:45:36;14.27;;;5.45;;
60014;SDS011;45867;52.480;6.056;2023-05-20T01:48:03;16.65;;;6.18;;
60014;SDS011;45867;52.480;6.056;2023-05-20T01:50:29;15.25;;;6.20;;
60014;SDS011;45867;52.480;6.056;2023-05-20T01:52:54;16.45;;;5.80;;
60014;SDS011;45867;52.480;6.056;2023-05-20T01:55:20;13.68;;;6.22;;
60014;SDS011;45867;52.480;6.056;2023-05-20T01:57:45;12.20;;;5.70;;
60014;SDS011;45867;52.480;6.056;2023-05-20T02:00:11;14.82;;;5.70;;
60014;SDS011;45867;52.480;6.056;2023-05-20T02:02:37;12.10;;;5.63;;
60014;SDS011;45867;52.480;6.056;2023-05-20T02:05:02;12.40;;;5.75;;
60014;SDS011;45867;52.480;6.056;2023-05-20T02:07:28;19.00;;;6.30;;
60014;SDS011;45867;52.480;6.056;2023-05-20T02:09:53;18.77;;;6.22;;
60014;SDS011;45867;52.480;6.056;2023-05-20T02:12:18;15.75;;;5.80;;
60014;SDS011;45867;52.480;6.056;2023-05-20T02:14:46;16.73;;;6.30;;
60014;SDS011;45867;52.480;6.056;2023-05-20T02:17:13;12.52;;;6.20;;
60014;SDS011;45867;52.480;6.056;2023-05-20T02:19:40;14.15;;;6.40;;
60014;SDS011;45867;52.480;6.056;2023-05-20T02:22:06;14.45;;;5.82;;
60014;SDS011;45867;52.480;6.056;2023-05-20T02:24:31;11.85;;;6.32;;
60014;SDS011;45867;52.480;6.056;2023-05-20T02:26:56;12.18;;;5.75;;
60014;SDS011;45867;52.480;6.056;2023-05-20T02:29:23;16.98;;;6.05;;
60014;SDS011;45867;52.480;6.056;2023-05-20T02:31:49;14.05;;;5.93;;
60014;SDS011;45867;52.480;6.056;2023-05-20T02:34:16;9.02;;;5.75;;
60014;SDS011;45867;52.480;6.056;2023-05-20T02:36:41;11.77;;;5.53;;
60014;SDS011;45867;52.480;6.056;2023-05-20T02:39:07;11.35;;;6.03;;
60014;SDS011;45867;52.480;6.056;2023-05-20T02:41:32;16.52;;;5.93;;
60014;SDS011;45867;52.480;6.056;2023-05-20T02:43:58;13.05;;;5.70;;
60014;SDS011;45867;52.480;6.056;2023-05-20T02:46:23;12.30;;;5.47;;
60014;SDS011;45867;52.480;6.056;2023-05-20T02:48:48;18.23;;;6.20;;
60014;SDS011;45867;52.480;6.056;2023-05-20T02:51:14;12.68;;;6.30;;
60014;SDS011;45867;52.480;6.056;2023-05-20T02:53:39;13.77;;;5.82;;
60014;SDS011;45867;52.480;6.056;2023-05-20T02:56:05;13.80;;;5.55;;
60014;SDS011;45867;52.480;6.056;2023-05-20T02:58:32;16.80;;;6.22;;
60014;SDS011;45867;52.480;6.056;2023-05-20T03:00:59;9.55;;;5.53;;
60014;SDS011;45867;52.480;6.056;2023-05-20T03:03:25;13.77;;;6.07;;
60014;SDS011;45867;52.480;6.056;2023-05-20T03:05:51;10.50;;;5.70;;
60014;SDS011;45867;52.480;6.056;2023-05-20T03:08:20;23.23;;;6.50;;
60014;SDS011;45867;52.480;6.056;2023-05-20T03:10:46;14.68;;;5.72;;
60014;SDS011;45867;52.480;6.056;2023-05-20T03:13:12;13.13;;;5.72;;
60014;SDS011;45867;52.480;6.056;2023-05-20T03:15:39;14.00;;;5.68;;
60014;SDS011;45867;52.480;6.056;2023-05-20T03:18:05;10.68;;;5.97;;
60014;SDS011;45867;52.480;6.056;2023-05-20T03:20:32;19.85;;;5.57;;
60014;SDS011;45867;52.480;6.056;2023-05-20T03:22:58;13.88;;;6.13;;
60014;SDS011;45867;52.480;6.056;2023-05-20T03:25:23;11.95;;;5.95;;
60014;SDS011;45867;52.480;6.056;2023-05-20T03:27:50;15.60;;;5.25;;
60014;SDS011;45867;52.480;6.056;2023-05-20T03:30:15;15.10;;;5.63;;
60014;SDS011;45867;52.480;6.056;2023-05-20T03:32:43;19.73;;;5.70;;
60014;SDS011;45867;52.480;6.056;2023-05-20T03:35:09;14.82;;;5.82;;
60014;SDS011;45867;52.480;6.056;2023-05-20T03:37:34;20.88;;;5.93;;
60014;SDS011;45867;52.480;6.056;2023-05-20T03:40:00;10.40;;;5.05;;
60014;SDS011;45867;52.480;6.056;2023-05-20T03:42:25;11.85;;;6.05;;
60014;SDS011;45867;52.480;6.056;2023-05-20T03:44:51;12.35;;;5.75;;
60014;SDS011;45867;52.480;6.056;2023-05-20T03:47:16;15.27;;;5.97;;
60014;SDS011;45867;52.480;6.056;2023-05-20T03:49:41;14.07;;;5.45;;
60014;SDS011;45867;52.480;6.056;2023-05-20T03:52:06;11.35;;;5.43;;
60014;SDS011;45867;52.480;6.056;2023-05-20T03:54:32;17.20;;;5.85;;
60014;SDS011;45867;52.480;6.056;2023-05-20T03:56:59;13.80;;;5.40;;
60014;SDS011;45867;52.480;6.056;2023-05-20T03:59:25;14.00;;;5.35;;
60014;SDS011;45867;52.480;6.056;2023-05-20T04:01:51;10.20;;;5.38;;
60014;SDS011;45867;52.480;6.056;2023-05-20T04:04:16;10.60;;;5.85;;
60014;SDS011;45867;52.480;6.056;2023-05-20T04:06:42;17.70;;;5.65;;
60014;SDS011;45867;52.480;6.056;2023-05-20T04:09:07;12.18;;;5.20;;
60014;SDS011;45867;52.480;6.056;2023-05-20T04:11:33;9.88;;;5.30;;
60014;SDS011;45867;52.480;6.056;2023-05-20T04:13:59;11.77;;;5.60;;
60014;SDS011;45867;52.480;6.056;2023-05-20T04:16:24;11.15;;;5.03;;
60014;SDS011;45867;52.480;6.056;2023-05-20T04:18:49;6.97;;;4.97;;
60014;SDS011;45867;52.480;6.056;2023-05-20T04:21:16;10.70;;;5.22;;
60014;SDS011;45867;52.480;6.056;2023-05-20T04:23:42;16.20;;;5.47;;
60014;SDS011;45867;52.480;6.056;2023-05-20T04:26:08;15.45;;;5.65;;
60014;SDS011;45867;52.480;6.056;2023-05-20T04:28:33;11.13;;;5.63;;
60014;SDS011;45867;52.480;6.056;2023-05-20T04:30:59;16.60;;;6.20;;
60014;SDS011;45867;52.480;6.056;2023-05-20T04:33:28;10.27;;;5.03;;
60014;SDS011;45867;52.480;6.056;2023-05-20T04:35:54;13.50;;;5.18;;
60014;SDS011;45867;52.480;6.056;2023-05-20T04:38:22;15.52;;;5.60;;
60014;SDS011;45867;52.480;6.056;2023-05-20T04:40:57;10.93;;;5.60;;
60014;SDS011;45867;52.480;6.056;2023-05-20T04:43:25;15.18;;;5.55;;
60014;SDS011;45867;52.480;6.056;2023-05-20T04:45:54;10.15;;;4.93;;
60014;SDS011;45867;52.480;6.056;2023-05-20T04:48:23;14.60;;;5.78;;
60014;SDS011;45867;52.480;6.056;2023-05-20T04:50:49;7.97;;;5.22;;
60014;SDS011;45867;52.480;6.056;2023-05-20T04:53:16;8.77;;;5.18;;
60014;SDS011;45867;52.480;6.056;2023-05-20T04:55:42;9.60;;;5.32;;
60014;SDS011;45867;52.480;6.056;2023-05-20T04:58:08;9.52;;;4.68;;
60014;SDS011;45867;52.480;6.056;2023-05-20T05:00:39;8.55;;;4.65;;
60014;SDS011;45867;52.480;6.056;2023-05-20T05:03:06;10.13;;;4.80;;
60014;SDS011;45867;52.480;6.056;2023-05-20T05:05:33;8.55;;;5.00;;
60014;SDS011;45867;52.480;6.056;2023-05-20T05:07:59;12.40;;;5.35;;
60014;SDS011;45867;52.480;6.056;2023-05-20T05:10:25;11.77;;;4.70;;
60014;SDS011;45867;52.480;6.056;2023-05-20T05:12:50;7.05;;;4.32;;
60014;SDS011;45867;52.480;6.056;2023-05-20T05:15:15;7.90;;;4.63;;
60014;SDS011;45867;52.480;6.056;2023-05-20T05:17:41;9.90;;;4.60;;
60014;SDS011;45867;52.480;6.056;2023-05-20T05:20:07;8.85;;;4.40;;
60014;SDS011;45867;52.480;6.056;2023-05-20T05:22:33;9.15;;;4.68;;
60014;SDS011;45867;52.480;6.056;2023-05-20T05:25:01;9.70;;;4.97;;
60014;SDS011;45867;52.480;6.056;2023-05-20T05:27:27;11.73;;;4.10;;
60014;SDS011;45867;52.480;6.056;2023-05-20T05:29:52;10.00;;;4.38;;
60014;SDS011;45867;52.480;6.056;2023-05-20T05:32:18;9.70;;;4.45;;
60014;SDS011;45867;52.480;6.056;2023-05-20T05:34:43;7.50;;;4.10;;
60014;SDS011;45867;52.480;6.056;2023-05-20T05:37:09;8.98;;;4.13;;
60014;SDS011;45867;52.480;6.056;2023-05-20T05:39:34;10.98;;;4.22;;
60014;SDS011;45867;52.480;6.056;2023-05-20T05:42:01;8.63;;;4.00;;
60014;SDS011;45867;52.480;6.056;2023-05-20T05:44:27;15.75;;;3.80;;
60014;SDS011;45867;52.480;6.056;2023-05-20T05:46:53;11.75;;;3.83;;
60014;SDS011;45867;52.480;6.056;2023-05-20T05:49:18;8.77;;;4.03;;
60014;SDS011;45867;52.480;6.056;2023-05-20T05:51:43;7.07;;;3.47;;
60014;SDS011;45867;52.480;6.056;2023-05-20T05:54:09;16.08;;;4.10;;
60014;SDS011;45867;52.480;6.056;2023-05-20T05:56:34;8.48;;;3.70;;
60014;SDS011;45867;52.480;6.056;2023-05-20T05:58:59;22.08;;;4.05;;
60014;SDS011;45867;52.480;6.056;2023-05-20T06:01:25;6.32;;;3.53;;
60014;SDS011;45867;52.480;6.056;2023-05-20T06:03:50;7.57;;;3.53;;
60014;SDS011;45867;52.480;6.056;2023-05-20T06:06:15;9.77;;;3.88;;
60014;SDS011;45867;52.480;6.056;2023-05-20T06:08:41;10.10;;;3.55;;
60014;SDS011;45867;52.480;6.056;2023-05-20T06:11:06;10.50;;;4.13;;
60014;SDS011;45867;52.480;6.056;2023-05-20T06:13:31;8.27;;;3.78;;
60014;SDS011;45867;52.480;6.056;2023-05-20T06:15:57;7.32;;;3.67;;
60014;SDS011;45867;52.480;6.056;2023-05-20T06:18:22;6.95;;;3.63;;
60014;SDS011;45867;52.480;6.056;2023-05-20T06:20:53;7.45;;;3.42;;
60014;SDS011;45867;52.480;6.056;2023-05-20T06:23:19;10.35;;;3.63;;
60014;SDS011;45867;52.480;6.056;2023-05-20T06:25:45;6.35;;;3.35;;
60014;SDS011;45867;52.480;6.056;2023-05-20T06:28:10;9.10;;;3.50;;
60014;SDS011;45867;52.480;6.056;2023-05-20T06:30:36;8.95;;;3.38;;
60014;SDS011;45867;52.480;6.056;2023-05-20T06:33:01;8.38;;;3.88;;
60014;SDS011;45867;52.480;6.056;2023-05-20T06:35:27;11.43;;;3.22;;
60014;SDS011;45867;52.480;6.056;2023-05-20T06:37:52;5.95;;;3.30;;
60014;SDS011;45867;52.480;6.056;2023-05-20T06:40:19;8.13;;;3.30;;
60014;SDS011;45867;52.480;6.056;2023-05-20T06:42:44;6.80;;;3.10;;
60014;SDS011;45867;52.480;6.056;2023-05-20T06:45:10;8.60;;;3.10;;
60014;SDS011;45867;52.480;6.056;2023-05-20T06:47:35;6.22;;;3.17;;
60014;SDS011;45867;52.480;6.056;2023-05-20T06:50:01;6.25;;;3.33;;
60014;SDS011;45867;52.480;6.056;2023-05-20T06:52:27;13.63;;;3.30;;
60014;SDS011;45867;52.480;6.056;2023-05-20T06:54:52;6.85;;;3.17;;
60014;SDS011;45867;52.480;6.056;2023-05-20T06:57:17;9.27;;;3.30;;
60014;SDS011;45867;52.480;6.056;2023-05-20T06:59:43;7.85;;;3.50;;
60014;SDS011;45867;52.480;6.056;2023-05-20T07:02:09;11.95;;;3.40;;
60014;SDS011;45867;52.480;6.056;2023-05-20T07:04:35;6.88;;;3.25;;
60014;SDS011;45867;52.480;6.056;2023-05-20T07:07:00;8.45;;;2.92;;
60014;SDS011;45867;52.480;6.056;2023-05-20T07:09:25;6.28;;;2.92;;
60014;SDS011;45867;52.480;6.056;2023-05-20T07:11:50;5.88;;;2.83;;
60014;SDS011;45867;52.480;6.056;2023-05-20T07:14:16;7.00;;;3.40;;
60014;SDS011;45867;52.480;6.056;2023-05-20T07:16:41;4.80;;;2.80;;
60014;SDS011;45867;52.480;6.056;2023-05-20T07:19:06;7.38;;;2.80;;
60014;SDS011;45867;52.480;6.056;2023-05-20T07:21:32;8.38;;;2.95;;
60014;SDS011;45867;52.480;6.056;2023-05-20T07:23:57;11.93;;;3.08;;
60014;SDS011;45867;52.480;6.056;2023-05-20T07:26:22;8.20;;;2.97;;
60014;SDS011;45867;52.480;6.056;2023-05-20T07:28:48;5.53;;;3.05;;
60014;SDS011;45867;52.480;6.056;2023-05-20T07:31:13;6.80;;;2.90;;
60014;SDS011;45867;52.480;6.056;2023-05-20T07:33:38;6.93;;;3.17;;
60014;SDS011;45867;52.480;6.056;2023-05-20T07:36:04;7.97;;;3.05;;
60014;SDS011;45867;52.480;6.056;2023-05-20T07:38:29;6.25;;;3.17;;
60014;SDS011;45867;52.480;6.056;2023-05-20T07:40:55;9.85;;;3.03;;
60014;SDS011;45867;52.480;6.056;2023-05-20T07:43:20;5.55;;;2.85;;
60014;SDS011;45867;52.480;6.056;2023-05-20T07:45:45;8.52;;;3.20;;
60014;SDS011;45867;52.480;6.056;2023-05-20T07:48:11;6.80;;;3.08;;
60014;SDS011;45867;52.480;6.056;2023-05-20T07:50:37;11.75;;;2.70;;
60014;SDS011;45867;52.480;6.056;2023-05-20T07:53:03;5.35;;;2.83;;
60014;SDS011;45867;52.480;6.056;2023-05-20T07:55:28;4.68;;;3.10;;
60014;SDS011;45867;52.480;6.056;2023-05-20T07:57:55;6.63;;;2.72;;
60014;SDS011;45867;52.480;6.056;2023-05-20T08:00:20;6.28;;;2.58;;
60014;SDS011;45867;52.480;6.056;2023-05-20T08:02:46;7.82;;;3.08;;
60014;SDS011;45867;52.480;6.056;2023-05-20T08:05:11;5.80;;;2.80;;
60014;SDS011;45867;52.480;6.056;2023-05-20T08:07:37;6.10;;;2.92;;
60014;SDS011;45867;52.480;6.056;2023-05-20T08:10:05;6.75;;;3.03;;
60014;SDS011;45867;52.480;6.056;2023-05-20T08:12:31;9.18;;;2.90;;
60014;SDS011;45867;52.480;6.056;2023-05-20T08:14:57;6.30;;;3.10;;
60014;SDS011;45867;52.480;6.056;2023-05-20T08:17:22;7.60;;;2.90;;
60014;SDS011;45867;52.480;6.056;2023-05-20T08:19:47;5.88;;;2.88;;
60014;SDS011;45867;52.480;6.056;2023-05-20T08:22:12;7.80;;;2.80;;
60014;SDS011;45867;52.480;6.056;2023-05-20T08:24:38;8.05;;;3.10;;
60014;SDS011;45867;52.480;6.056;2023-05-20T08:27:03;7.22;;;2.72;;
60014;SDS011;45867;52.480;6.056;2023-05-20T08:29:29;4.47;;;2.80;;
60014;SDS011;45867;52.480;6.056;2023-05-20T08:31:54;6.30;;;2.80;;
60014;SDS011;45867;52.480;6.056;2023-05-20T08:34:20;8.15;;;2.83;;
60014;SDS011;45867;52.480;6.056;2023-05-20T08:36:45;9.10;;;3.00;;
60014;SDS011;45867;52.480;6.056;2023-05-20T08:39:10;9.23;;;3.22;;
60014;SDS011;45867;52.480;6.056;2023-05-20T08:41:36;17.35;;;2.58;;
60014;SDS011;45867;52.480;6.056;2023-05-20T08:44:03;6.13;;;2.90;;
60014;SDS011;45867;52.480;6.056;2023-05-20T08:46:30;5.68;;;2.85;;
60014;SDS011;45867;52.480;6.056;2023-05-20T08:48:58;8.80;;;3.30;;
60014;SDS011;45867;52.480;6.056;2023-05-20T08:51:23;14.05;;;3.60;;
60014;SDS011;45867;52.480;6.056;2023-05-20T08:53:51;8.80;;;2.97;;
60014;SDS011;45867;52.480;6.056;2023-05-20T08:56:17;8.32;;;2.88;;
60014;SDS011;45867;52.480;6.056;2023-05-20T08:58:43;5.55;;;3.10;;
60014;SDS011;45867;52.480;6.056;2023-05-20T09:01:10;6.03;;;2.92;;
60014;SDS011;45867;52.480;6.056;2023-05-20T09:03:36;5.47;;;2.83;;
60014;SDS011;45867;52.480;6.056;2023-05-20T09:06:14;6.13;;;2.67;;
60014;SDS011;45867;52.480;6.056;2023-05-20T09:08:44;5.82;;;2.95;;
60014;SDS011;45867;52.480;6.056;2023-05-20T09:11:10;7.57;;;2.50;;
60014;SDS011;45867;52.480;6.056;2023-05-20T09:13:36;6.05;;;2.72;;
60014;SDS011;45867;52.480;6.056;2023-05-20T09:16:01;5.05;;;2.80;;
60014;SDS011;45867;52.480;6.056;2023-05-20T09:18:27;6.47;;;2.72;;
60014;SDS011;45867;52.480;6.056;2023-05-20T09:20:53;10.65;;;2.63;;
60014;SDS011;45867;52.480;6.056;2023-05-20T09:23:18;4.35;;;2.50;;
60014;SDS011;45867;52.480;6.056;2023-05-20T09:25:48;5.82;;;2.67;;
60014;SDS011;45867;52.480;6.056;2023-05-20T09:28:14;9.02;;;2.60;;
60014;SDS011;45867;52.480;6.056;2023-05-20T09:30:39;8.02;;;2.70;;
60014;SDS011;45867;52.480;6.056;2023-05-20T09:33:04;12.48;;;2.47;;
60014;SDS011;45867;52.480;6.056;2023-05-20T09:35:33;8.88;;;2.35;;
60014;SDS011;45867;52.480;6.056;2023-05-20T09:38:01;4.45;;;2.40;;
60014;SDS011;45867;52.480;6.056;2023-05-20T09:40:29;3.35;;;2.15;;
60014;SDS011;45867;52.480;6.056;2023-05-20T09:43:01;4.18;;;2.53;;
60014;SDS011;45867;52.480;6.056;2023-05-20T09:45:28;11.07;;;2.75;;
60014;SDS011;45867;52.480;6.056;2023-05-20T09:47:54;6.53;;;2.88;;
60014;SDS011;45867;52.480;6.056;2023-05-20T09:50:21;5.55;;;2.53;;
60014;SDS011;45867;52.480;6.056;2023-05-20T09:52:48;9.50;;;2.60;;
60014;SDS011;45867;52.480;6.056;2023-05-20T09:55:15;4.95;;;1.95;;
60014;SDS011;45867;52.480;6.056;2023-05-20T09:57:43;5.93;;;2.20;;
60014;SDS011;45867;52.480;6.056;2023-05-20T10:00:09;5.40;;;2.38;;
60014;SDS011;45867;52.480;6.056;2023-05-20T10:02:37;7.65;;;2.53;;
60014;SDS011;45867;52.480;6.056;2023-05-20T10:05:06;39.95;;;3.10;;
60014;SDS011;45867;52.480;6.056;2023-05-20T10:10:15;8.18;;;2.40;;
60014;SDS011;45867;52.480;6.056;2023-05-20T10:13:14;6.55;;;2.30;;
60014;SDS011;45867;52.480;6.056;2023-05-20T10:21:02;6.20;;;2.50;;
60014;SDS011;45867;52.480;6.056;2023-05-20T10:23:38;4.28;;;2.45;;
60014;SDS011;45867;52.480;6.056;2023-05-20T10:26:05;4.88;;;2.75;;
60014;SDS011;45867;52.480;6.056;2023-05-20T10:28:32;5.15;;;2.60;;
60014;SDS011;45867;52.480;6.056;2023-05-20T10:31:00;7.38;;;2.60;;
60014;SDS011;45867;52.480;6.056;2023-05-20T10:33:25;4.80;;;2.40;;
60014;SDS011;45867;52.480;6.056;2023-05-20T10:35:52;10.85;;;2.60;;
60014;SDS011;45867;52.480;6.056;2023-05-20T10:38:18;5.75;;;2.33;;
60014;SDS011;45867;52.480;6.056;2023-05-20T10:40:45;7.68;;;2.45;;
60014;SDS011;45867;52.480;6.056;2023-05-20T10:43:14;7.18;;;2.38;;
60014;SDS011;45867;52.480;6.056;2023-05-20T10:45:52;4.03;;;2.13;;
60014;SDS011;45867;52.480;6.056;2023-05-20T10:48:23;5.07;;;2.30;;
60014;SDS011;45867;52.480;6.056;2023-05-20T10:50:53;4.20;;;2.42;;
60014;SDS011;45867;52.480;6.056;2023-05-20T10:53:24;7.32;;;2.30;;
60014;SDS011;45867;52.480;6.056;2023-05-20T10:55:51;4.30;;;2.60;;
60014;SDS011;45867;52.480;6.056;2023-05-20T10:58:18;10.80;;;2.70;;
60014;SDS011;45867;52.480;6.056;2023-05-20T11:00:46;4.45;;;2.22;;
60014;SDS011;45867;52.480;6.056;2023-05-20T11:03:13;7.65;;;2.58;;
60014;SDS011;45867;52.480;6.056;2023-05-20T11:05:40;11.77;;;2.90;;
60014;SDS011;45867;52.480;6.056;2023-05-20T11:08:07;6.95;;;2.60;;
60014;SDS011;45867;52.480;6.056;2023-05-20T11:10:33;3.47;;;2.13;;
60014;SDS011;45867;52.480;6.056;2023-05-20T11:13:00;9.07;;;2.40;;
60014;SDS011;45867;52.480;6.056;2023-05-20T11:15:27;6.43;;;2.20;;
60014;SDS011;45867;52.480;6.056;2023-05-20T11:17:53;13.20;;;2.85;;
60014;SDS011;45867;52.480;6.056;2023-05-20T11:20:20;7.45;;;2.40;;
60014;SDS011;45867;52.480;6.056;2023-05-20T11:22:46;5.63;;;2.05;;
60014;SDS011;45867;52.480;6.056;2023-05-20T11:25:13;7.45;;;2.30;;
60014;SDS011;45867;52.480;6.056;2023-05-20T11:27:38;5.97;;;2.25;;
60014;SDS011;45867;52.480;6.056;2023-05-20T11:30:04;4.38;;;2.20;;
60014;SDS011;45867;52.480;6.056;2023-05-20T11:32:30;4.63;;;1.90;;
60014;SDS011;45867;52.480;6.056;2023-05-20T11:34:56;11.32;;;2.40;;
60014;SDS011;45867;52.480;6.056;2023-05-20T11:37:22;7.40;;;2.03;;
60014;SDS011;45867;52.480;6.056;2023-05-20T11:39:48;7.95;;;2.22;;
60014;SDS011;45867;52.480;6.056;2023-05-20T11:42:13;6.55;;;2.20;;
60014;SDS011;45867;52.480;6.056;2023-05-20T11:44:43;6.97;;;1.95;;
60014;SDS011;45867;52.480;6.056;2023-05-20T11:47:09;8.48;;;2.00;;
60014;SDS011;45867;52.480;6.056;2023-05-20T11:49:40;8.68;;;1.80;;
60014;SDS011;45867;52.480;6.056;2023-05-20T11:54:34;13.35;;;2.10;;
60014;SDS011;45867;52.480;6.056;2023-05-20T11:57:00;2.95;;;1.85;;
60014;SDS011;45867;52.480;6.056;2023-05-20T11:59:26;16.60;;;2.40;;
60014;SDS011;45867;52.480;6.056;2023-05-20T12:01:52;6.07;;;2.17;;
60014;SDS011;45867;52.480;6.056;2023-05-20T12:04:17;6.93;;;1.90;;
60014;SDS011;45867;52.480;6.056;2023-05-20T12:06:42;4.07;;;2.00;;
60014;SDS011;45867;52.480;6.056;2023-05-20T12:09:09;5.55;;;2.20;;
60014;SDS011;45867;52.480;6.056;2023-05-20T12:11:37;4.00;;;2.10;;
60014;SDS011;45867;52.480;6.056;2023-05-20T12:14:08;7.20;;;2.35;;
60014;SDS011;45867;52.480;6.056;2023-05-20T12:16:34;3.38;;;2.03;;
60014;SDS011;45867;52.480;6.056;2023-05-20T12:19:00;7.00;;;2.22;;
60014;SDS011;45867;52.480;6.056;2023-05-20T12:21:26;7.15;;;2.30;;
60014;SDS011;45867;52.480;6.056;2023-05-20T12:23:52;7.93;;;2.10;;
60014;SDS011;45867;52.480;6.056;2023-05-20T12:26:24;12.30;;;2.20;;
60014;SDS011;45867;52.480;6.056;2023-05-20T12:28:53;6.00;;;2.30;;
60014;SDS011;45867;52.480;6.056;2023-05-20T12:31:18;12.00;;;2.30;;
60014;SDS011;45867;52.480;6.056;2023-05-20T12:33:44;4.10;;;2.38;;
60014;SDS011;45867;52.480;6.056;2023-05-20T12:36:09;3.53;;;2.00;;
60014;SDS011;45867;52.480;6.056;2023-05-20T12:38:36;4.20;;;2.10;;
60014;SDS011;45867;52.480;6.056;2023-05-20T12:41:01;4.93;;;2.33;;
60014;SDS011;45867;52.480;6.056;2023-05-20T12:43:26;3.58;;;2.10;;
60014;SDS011;45867;52.480;6.056;2023-05-20T12:45:52;4.07;;;2.20;;
60014;SDS011;45867;52.480;6.056;2023-05-20T12:48:18;9.48;;;2.28;;
60014;SDS011;45867;52.480;6.056;2023-05-20T12:50:43;8.35;;;2.40;;
60014;SDS011;45867;52.480;6.056;2023-05-20T12:53:09;9.57;;;2.33;;
60014;SDS011;45867;52.480;6.056;2023-05-20T12:55:34;7.10;;;2.35;;
60014;SDS011;45867;52.480;6.056;2023-05-20T12:57:59;5.45;;;2.00;;
60014;SDS011;45867;52.480;6.056;2023-05-20T13:00:25;8.27;;;2.30;;
60014;SDS011;45867;52.480;6.056;2023-05-20T13:02:50;10.18;;;2.13;;
60014;SDS011;45867;52.480;6.056;2023-05-20T13:05:16;4.13;;;2.00;;
60014;SDS011;45867;52.480;6.056;2023-05-20T13:07:42;10.20;;;2.35;;
60014;SDS011;45867;52.480;6.056;2023-05-20T13:10:08;10.00;;;2.25;;
60014;SDS011;45867;52.480;6.056;2023-05-20T13:12:34;8.20;;;2.47;;
60014;SDS011;45867;52.480;6.056;2023-05-20T13:15:00;6.57;;;1.90;;
60014;SDS011;45867;52.480;6.056;2023-05-20T13:17:25;7.25;;;1.95;;
60014;SDS011;45867;52.480;6.056;2023-05-20T13:19:51;4.75;;;1.88;;
60014;SDS011;45867;52.480;6.056;2023-05-20T13:22:16;9.30;;;1.92;;
60014;SDS011;45867;52.480;6.056;2023-05-20T13:24:42;6.38;;;2.00;;
60014;SDS011;45867;52.480;6.056;2023-05-20T13:27:07;8.85;;;2.22;;
60014;SDS011;45867;52.480;6.056;2023-05-20T13:29:33;9.60;;;2.13;;
60014;SDS011;45867;52.480;6.056;2023-05-20T13:31:58;10.02;;;2.00;;
60014;SDS011;45867;52.480;6.056;2023-05-20T13:34:23;10.82;;;2.05;;
60014;SDS011;45867;52.480;6.056;2023-05-20T13:36:49;4.88;;;1.63;;
60014;SDS011;45867;52.480;6.056;2023-05-20T13:39:14;3.38;;;2.10;;
60014;SDS011;45867;52.480;6.056;2023-05-20T13:41:40;14.70;;;2.20;;
60014;SDS011;45867;52.480;6.056;2023-05-20T13:44:05;11.23;;;2.58;;
60014;SDS011;45867;52.480;6.056;2023-05-20T13:46:31;13.10;;;2.35;;
60014;SDS011;45867;52.480;6.056;2023-05-20T13:48:57;4.32;;;2.10;;
60014;SDS011;45867;52.480;6.056;2023-05-20T13:51:22;5.53;;;2.30;;
60014;SDS011;45867;52.480;6.056;2023-05-20T13:53:47;6.15;;;2.63;;
60014;SDS011;45867;52.480;6.056;2023-05-20T13:56:12;6.22;;;2.72;;
60014;SDS011;45867;52.480;6.056;2023-05-20T13:58:38;5.30;;;2.13;;
60014;SDS011;45867;52.480;6.056;2023-05-20T14:01:03;10.65;;;2.45;;
60014;SDS011;45867;52.480;6.056;2023-05-20T14:03:30;6.65;;;2.08;;
60014;SDS011;45867;52.480;6.056;2023-05-20T14:05:57;5.75;;;2.40;;
60014;SDS011;45867;52.480;6.056;2023-05-20T14:08:23;5.10;;;2.10;;
60014;SDS011;45867;52.480;6.056;2023-05-20T14:10:48;5.25;;;2.20;;
60014;SDS011;45867;52.480;6.056;2023-05-20T14:13:16;9.23;;;4.18;;
60014;SDS011;45867;52.480;6.056;2023-05-20T14:15:41;5.18;;;2.60;;
60014;SDS011;45867;52.480;6.056;2023-05-20T14:18:06;4.30;;;2.20;;
60014;SDS011;45867;52.480;6.056;2023-05-20T14:20:32;5.72;;;2.17;;
60014;SDS011;45867;52.480;6.056;2023-05-20T14:22:57;5.13;;;2.05;;
60014;SDS011;45867;52.480;6.056;2023-05-20T14:25:24;3.78;;;1.98;;
60014;SDS011;45867;52.480;6.056;2023-05-20T14:27:50;4.32;;;2.05;;
60014;SDS011;45867;52.480;6.056;2023-05-20T14:30:15;7.90;;;2.22;;
60014;SDS011;45867;52.480;6.056;2023-05-20T14:32:41;4.20;;;2.20;;
60014;SDS011;45867;52.480;6.056;2023-05-20T14:35:06;8.18;;;2.35;;
60014;SDS011;45867;52.480;6.056;2023-05-20T14:37:31;4.82;;;2.50;;
60014;SDS011;45867;52.480;6.056;2023-05-20T14:39:57;3.53;;;2.40;;
60014;SDS011;45867;52.480;6.056;2023-05-20T14:42:22;11.10;;;2.55;;
60014;SDS011;45867;52.480;6.056;2023-05-20T14:44:48;8.77;;;2.38;;
60014;SDS011;45867;52.480;6.056;2023-05-20T14:47:13;7.95;;;2.30;;